sensor_id;sensor_type;location;lat;lon;timestamp;pressure;altitude;pressure_sealevel;temperature
20848;BMP180;10584;50.854;12.902;2024-02-21T00:03:59;98733.00;;;6.50
20848;BMP180;10584;50.854;12.902;2024-02-21T00:09:22;98713.00;;;6.60
20848;BMP180;10584;50.854;12.902;2024-02-21T00:14:43;98714.00;;;6.60
20848;BMP180;10584;50.854;12.902;2024-02-21T00:20:06;98717.00;;;6.50
20848;BMP180;10584;50.854;12.902;2024-02-21T00:25:29;98708.00;;;6.50
20848;BMP180;10584;50.854;12.902;2024-02-21T00:30:51;98702.00;;;6.50
20848;BMP180;10584;50.854;12.902;2024-02-21T00:36:14;98697.00;;;6.50
20848;BMP180;10584;50.854;12.902;2024-02-21T00:41:37;98690.00;;;6.50
20848;BMP180;10584;50.854;12.902;2024-02-21T00:46:59;98687.00;;;6.50
20848;BMP180;10584;50.854;12.902;2024-02-21T00:52:21;98683.00;;;6.50
20848;BMP180;10584;50.854;12.902;2024-02-21T00:57:43;98683.00;;;6.50
20848;BMP180;10584;50.854;12.902;2024-02-21T01:03:06;98665.00;;;6.50
20848;BMP180;10584;50.854;12.902;2024-02-21T01:08:28;98674.00;;;6.50
20848;BMP180;10584;50.854;12.902;2024-02-21T01:13:50;98665.00;;;6.50
20848;BMP180;10584;50.854;12.902;2024-02-21T01:19:12;98645.00;;;6.50
20848;BMP180;10584;50.854;12.902;2024-02-21T01:24:35;98636.00;;;6.40
20848;BMP180;10584;50.854;12.902;2024-02-21T01:29:56;98634.00;;;6.50
20848;BMP180;10584;50.854;12.902;2024-02-21T01:35:18;98622.00;;;6.50
20848;BMP180;10584;50.854;12.902;2024-02-21T01:40:41;98616.00;;;6.40
20848;BMP180;10584;50.854;12.902;2024-02-21T01:46:03;98618.00;;;6.30
20848;BMP180;10584;50.854;12.902;2024-02-21T01:51:26;98601.00;;;6.30
20848;BMP180;10584;50.854;12.902;2024-02-21T01:56:48;98589.00;;;6.30
20848;BMP180;10584;50.854;12.902;2024-02-21T02:02:11;98589.00;;;6.20
20848;BMP180;10584;50.854;12.902;2024-02-21T02:07:33;98580.00;;;6.20
20848;BMP180;10584;50.854;12.902;2024-02-21T02:12:55;98575.00;;;6.30
20848;BMP180;10584;50.854;12.902;2024-02-21T02:18:19;98570.00;;;6.30
20848;BMP180;10584;50.854;12.902;2024-02-21T02:23:45;98570.00;;;6.20
20848;BMP180;10584;50.854;12.902;2024-02-21T02:29:07;98564.00;;;6.30
20848;BMP180;10584;50.854;12.902;2024-02-21T02:34:30;98555.00;;;6.20
20848;BMP180;10584;50.854;12.902;2024-02-21T02:39:52;98544.00;;;6.40
20848;BMP180;10584;50.854;12.902;2024-02-21T02:45:15;98540.00;;;6.40
20848;BMP180;10584;50.854;12.902;2024-02-21T02:50:37;98535.00;;;6.30
20848;BMP180;10584;50.854;12.902;2024-02-21T02:55:59;98528.00;;;6.30
20848;BMP180;10584;50.854;12.902;2024-02-21T03:01:21;98528.00;;;6.20
20848;BMP180;10584;50.854;12.902;2024-02-21T03:06:43;98524.00;;;6.30
20848;BMP180;10584;50.854;12.902;2024-02-21T03:12:06;98524.00;;;6.30
20848;BMP180;10584;50.854;12.902;2024-02-21T03:17:28;98508.00;;;6.20
20848;BMP180;10584;50.854;12.902;2024-02-21T03:22:51;98507.00;;;6.30
20848;BMP180;10584;50.854;12.902;2024-02-21T03:28:13;98518.00;;;6.30
20848;BMP180;10584;50.854;12.902;2024-02-21T03:33:35;98501.00;;;6.30
20848;BMP180;10584;50.854;12.902;2024-02-21T03:38:58;98498.00;;;6.30
20848;BMP180;10584;50.854;12.902;2024-02-21T03:44:43;98502.00;;;6.20
20848;BMP180;10584;50.854;12.902;2024-02-21T03:50:06;98492.00;;;6.30
20848;BMP180;10584;50.854;12.902;2024-02-21T03:55:28;98498.00;;;6.30
20848;BMP180;10584;50.854;12.902;2024-02-21T04:00:51;98511.00;;;6.30
20848;BMP180;10584;50.854;12.902;2024-02-21T04:06:13;98501.00;;;6.30
20848;BMP180;10584;50.854;12.902;2024-02-21T04:11:36;98499.00;;;6.40
20848;BMP180;10584;50.854;12.902;2024-02-21T04:16:58;98503.00;;;6.30
20848;BMP180;10584;50.854;12.902;2024-02-21T04:22:20;98517.00;;;6.30
20848;BMP180;10584;50.854;12.902;2024-02-21T04:27:42;98513.00;;;6.30
20848;BMP180;10584;50.854;12.902;2024-02-21T04:33:07;98504.00;;;6.40
20848;BMP180;10584;50.854;12.902;2024-02-21T04:38:29;98501.00;;;6.20
20848;BMP180;10584;50.854;12.902;2024-02-21T04:43:52;98498.00;;;6.30
20848;BMP180;10584;50.854;12.902;2024-02-21T04:49:15;98484.00;;;6.20
20848;BMP180;10584;50.854;12.902;2024-02-21T04:54:37;98484.00;;;6.20
20848;BMP180;10584;50.854;12.902;2024-02-21T04:59:59;98478.00;;;6.20
20848;BMP180;10584;50.854;12.902;2024-02-21T05:05:21;98473.00;;;6.10
20848;BMP180;10584;50.854;12.902;2024-02-21T05:10:44;98472.00;;;6.10
20848;BMP180;10584;50.854;12.902;2024-02-21T05:16:06;98481.00;;;6.00
20848;BMP180;10584;50.854;12.902;2024-02-21T05:21:28;98487.00;;;6.10
20848;BMP180;10584;50.854;12.902;2024-02-21T05:26:51;98463.00;;;6.00
20848;BMP180;10584;50.854;12.902;2024-02-21T05:32:13;98443.00;;;6.00
20848;BMP180;10584;50.854;12.902;2024-02-21T05:37:35;98462.00;;;5.90
20848;BMP180;10584;50.854;12.902;2024-02-21T05:42:57;98455.00;;;6.00
20848;BMP180;10584;50.854;12.902;2024-02-21T05:48:20;98431.00;;;5.90
20848;BMP180;10584;50.854;12.902;2024-02-21T05:53:42;98428.00;;;5.90
20848;BMP180;10584;50.854;12.902;2024-02-21T05:59:04;98437.00;;;6.00
20848;BMP180;10584;50.854;12.902;2024-02-21T06:04:26;98432.00;;;5.90
20848;BMP180;10584;50.854;12.902;2024-02-21T06:09:49;98432.00;;;6.10
20848;BMP180;10584;50.854;12.902;2024-02-21T06:15:11;98416.00;;;6.00
20848;BMP180;10584;50.854;12.902;2024-02-21T06:20:33;98407.00;;;5.90
20848;BMP180;10584;50.854;12.902;2024-02-21T06:25:57;98404.00;;;5.90
20848;BMP180;10584;50.854;12.902;2024-02-21T06:31:19;98399.00;;;5.90
20848;BMP180;10584;50.854;12.902;2024-02-21T06:36:41;98395.00;;;6.00
20848;BMP180;10584;50.854;12.902;2024-02-21T06:42:04;98390.00;;;6.00
20848;BMP180;10584;50.854;12.902;2024-02-21T06:47:26;98385.00;;;6.00
20848;BMP180;10584;50.854;12.902;2024-02-21T06:52:48;98407.00;;;6.00
20848;BMP180;10584;50.854;12.902;2024-02-21T06:58:10;98407.00;;;6.00
20848;BMP180;10584;50.854;12.902;2024-02-21T07:03:33;98407.00;;;6.10
20848;BMP180;10584;50.854;12.902;2024-02-21T07:08:55;98409.00;;;6.10
20848;BMP180;10584;50.854;12.902;2024-02-21T07:14:20;98407.00;;;6.10
20848;BMP180;10584;50.854;12.902;2024-02-21T07:19:56;98417.00;;;6.30
20848;BMP180;10584;50.854;12.902;2024-02-21T07:25:21;98414.00;;;6.30
20848;BMP180;10584;50.854;12.902;2024-02-21T07:30:43;98416.00;;;6.40
20848;BMP180;10584;50.854;12.902;2024-02-21T07:36:10;98422.00;;;6.50
20848;BMP180;10584;50.854;12.902;2024-02-21T07:41:32;98419.00;;;6.60
20848;BMP180;10584;50.854;12.902;2024-02-21T07:47:16;98414.00;;;6.70
20848;BMP180;10584;50.854;12.902;2024-02-21T07:52:40;98417.00;;;6.60
20848;BMP180;10584;50.854;12.902;2024-02-21T07:58:02;98431.00;;;6.70
20848;BMP180;10584;50.854;12.902;2024-02-21T08:03:24;98434.00;;;6.70
20848;BMP180;10584;50.854;12.902;2024-02-21T08:08:47;98447.00;;;6.70
20848;BMP180;10584;50.854;12.902;2024-02-21T08:14:12;98435.00;;;6.90
20848;BMP180;10584;50.854;12.902;2024-02-21T08:19:52;98406.00;;;6.90
20848;BMP180;10584;50.854;12.902;2024-02-21T08:25:14;98386.00;;;6.90
20848;BMP180;10584;50.854;12.902;2024-02-21T08:30:36;98378.00;;;7.20
20848;BMP180;10584;50.854;12.902;2024-02-21T08:35:58;98374.00;;;7.40
20848;BMP180;10584;50.854;12.902;2024-02-21T08:41:21;98358.00;;;7.70
20848;BMP180;10584;50.854;12.902;2024-02-21T08:46:59;98349.00;;;7.90
20848;BMP180;10584;50.854;12.902;2024-02-21T08:52:22;98361.00;;;8.00
20848;BMP180;10584;50.854;12.902;2024-02-21T08:57:44;98367.00;;;8.20
20848;BMP180;10584;50.854;12.902;2024-02-21T09:03:06;98376.00;;;8.20
20848;BMP180;10584;50.854;12.902;2024-02-21T09:08:28;98379.00;;;8.30
20848;BMP180;10584;50.854;12.902;2024-02-21T09:13:51;98373.00;;;8.40
20848;BMP180;10584;50.854;12.902;2024-02-21T09:19:13;98372.00;;;8.10
20848;BMP180;10584;50.854;12.902;2024-02-21T09:24:35;98362.00;;;8.10
20848;BMP180;10584;50.854;12.902;2024-02-21T09:29:57;98376.00;;;8.00
20848;BMP180;10584;50.854;12.902;2024-02-21T09:35:20;98373.00;;;8.00
20848;BMP180;10584;50.854;12.902;2024-02-21T09:40:45;98363.00;;;7.90
20848;BMP180;10584;50.854;12.902;2024-02-21T09:46:17;98367.00;;;7.80
20848;BMP180;10584;50.854;12.902;2024-02-21T09:51:42;98383.00;;;8.00
20848;BMP180;10584;50.854;12.902;2024-02-21T09:57:07;98390.00;;;7.90
20848;BMP180;10584;50.854;12.902;2024-02-21T10:02:30;98381.00;;;8.00
20848;BMP180;10584;50.854;12.902;2024-02-21T10:07:55;98379.00;;;8.00
20848;BMP180;10584;50.854;12.902;2024-02-21T10:13:28;98385.00;;;8.00
20848;BMP180;10584;50.854;12.902;2024-02-21T10:18:54;98385.00;;;8.00
20848;BMP180;10584;50.854;12.902;2024-02-21T10:24:26;98378.00;;;8.00
20848;BMP180;10584;50.854;12.902;2024-02-21T10:29:50;98369.00;;;7.90
20848;BMP180;10584;50.854;12.902;2024-02-21T10:35:13;98355.00;;;7.90
20848;BMP180;10584;50.854;12.902;2024-02-21T10:40:35;98360.00;;;8.20
20848;BMP180;10584;50.854;12.902;2024-02-21T10:45:58;98346.00;;;8.40
20848;BMP180;10584;50.854;12.902;2024-02-21T10:51:23;98335.00;;;8.50
20848;BMP180;10584;50.854;12.902;2024-02-21T10:56:50;98315.00;;;8.60
20848;BMP180;10584;50.854;12.902;2024-02-21T11:02:13;98309.00;;;8.80
20848;BMP180;10584;50.854;12.902;2024-02-21T11:07:39;98299.00;;;9.00
20848;BMP180;10584;50.854;12.902;2024-02-21T11:13:11;98300.00;;;9.30
20848;BMP180;10584;50.854;12.902;2024-02-21T11:18:32;98285.00;;;10.00
20848;BMP180;10584;50.854;12.902;2024-02-21T11:23:58;98266.00;;;10.60
20848;BMP180;10584;50.854;12.902;2024-02-21T11:29:26;98259.00;;;10.60
20848;BMP180;10584;50.854;12.902;2024-02-21T11:34:55;98252.00;;;10.90
20848;BMP180;10584;50.854;12.902;2024-02-21T11:40:18;98236.00;;;11.00
20848;BMP180;10584;50.854;12.902;2024-02-21T11:45:40;98212.00;;;11.20
20848;BMP180;10584;50.854;12.902;2024-02-21T11:51:01;98210.00;;;11.40
20848;BMP180;10584;50.854;12.902;2024-02-21T11:56:25;98214.00;;;11.40
20848;BMP180;10584;50.854;12.902;2024-02-21T12:01:50;98189.00;;;11.20
20848;BMP180;10584;50.854;12.902;2024-02-21T12:07:15;98176.00;;;11.20
20848;BMP180;10584;50.854;12.902;2024-02-21T12:12:38;98175.00;;;11.30
20848;BMP180;10584;50.854;12.902;2024-02-21T12:18:04;98150.00;;;11.40
20848;BMP180;10584;50.854;12.902;2024-02-21T12:23:32;98142.00;;;11.80
20848;BMP180;10584;50.854;12.902;2024-02-21T12:29:08;98139.00;;;11.80
20848;BMP180;10584;50.854;12.902;2024-02-21T12:34:36;98134.00;;;11.70
20848;BMP180;10584;50.854;12.902;2024-02-21T12:40:14;98126.00;;;11.60
20848;BMP180;10584;50.854;12.902;2024-02-21T12:45:36;98111.00;;;11.60
20848;BMP180;10584;50.854;12.902;2024-02-21T12:50:59;98106.00;;;11.50
20848;BMP180;10584;50.854;12.902;2024-02-21T12:56:21;98097.00;;;11.60
20848;BMP180;10584;50.854;12.902;2024-02-21T13:01:43;98096.00;;;11.70
20848;BMP180;10584;50.854;12.902;2024-02-21T13:07:06;98069.00;;;11.70
20848;BMP180;10584;50.854;12.902;2024-02-21T13:12:28;98064.00;;;11.80
20848;BMP180;10584;50.854;12.902;2024-02-21T13:17:52;98058.00;;;12.00
20848;BMP180;10584;50.854;12.902;2024-02-21T13:23:14;98051.00;;;12.20
20848;BMP180;10584;50.854;12.902;2024-02-21T13:28:37;98033.00;;;12.10
20848;BMP180;10584;50.854;12.902;2024-02-21T13:33:59;98033.00;;;12.10
20848;BMP180;10584;50.854;12.902;2024-02-21T13:39:22;98011.00;;;12.20
20848;BMP180;10584;50.854;12.902;2024-02-21T13:44:44;98003.00;;;12.20
20848;BMP180;10584;50.854;12.902;2024-02-21T13:50:07;98006.00;;;12.50
20848;BMP180;10584;50.854;12.902;2024-02-21T13:55:32;98004.00;;;12.30
20848;BMP180;10584;50.854;12.902;2024-02-21T14:00:55;98000.00;;;12.40
20848;BMP180;10584;50.854;12.902;2024-02-21T14:06:18;97994.00;;;12.30
20848;BMP180;10584;50.854;12.902;2024-02-21T14:11:45;97991.00;;;12.20
20848;BMP180;10584;50.854;12.902;2024-02-21T14:17:24;98000.00;;;12.10
20848;BMP180;10584;50.854;12.902;2024-02-21T14:22:46;98015.00;;;12.10
20848;BMP180;10584;50.854;12.902;2024-02-21T14:28:08;97993.00;;;12.00
20848;BMP180;10584;50.854;12.902;2024-02-21T14:33:34;97986.00;;;12.00
20848;BMP180;10584;50.854;12.902;2024-02-21T14:38:56;97977.00;;;12.10
20848;BMP180;10584;50.854;12.902;2024-02-21T14:44:18;97978.00;;;12.20
20848;BMP180;10584;50.854;12.902;2024-02-21T14:49:40;97980.00;;;12.00
20848;BMP180;10584;50.854;12.902;2024-02-21T14:55:32;97970.00;;;11.70
20848;BMP180;10584;50.854;12.902;2024-02-21T15:00:54;97971.00;;;11.40
20848;BMP180;10584;50.854;12.902;2024-02-21T15:06:16;97963.00;;;11.40
20848;BMP180;10584;50.854;12.902;2024-02-21T15:11:38;97959.00;;;10.80
20848;BMP180;10584;50.854;12.902;2024-02-21T15:17:02;97953.00;;;10.70
20848;BMP180;10584;50.854;12.902;2024-02-21T15:22:25;97926.00;;;10.50
20848;BMP180;10584;50.854;12.902;2024-02-21T15:28:09;97915.00;;;10.20
20848;BMP180;10584;50.854;12.902;2024-02-21T15:33:32;97910.00;;;10.30
20848;BMP180;10584;50.854;12.902;2024-02-21T15:44:41;97887.00;;;10.00
20848;BMP180;10584;50.854;12.902;2024-02-21T15:50:04;97883.00;;;10.20
20848;BMP180;10584;50.854;12.902;2024-02-21T15:55:26;97870.00;;;9.90
20848;BMP180;10584;50.854;12.902;2024-02-21T16:00:50;97853.00;;;9.80
20848;BMP180;10584;50.854;12.902;2024-02-21T16:06:13;97844.00;;;9.70
20848;BMP180;10584;50.854;12.902;2024-02-21T16:11:35;97836.00;;;9.70
20848;BMP180;10584;50.854;12.902;2024-02-21T16:16:57;97817.00;;;9.60
20848;BMP180;10584;50.854;12.902;2024-02-21T16:22:19;97819.00;;;9.60
20848;BMP180;10584;50.854;12.902;2024-02-21T16:27:43;97811.00;;;9.50
20848;BMP180;10584;50.854;12.902;2024-02-21T16:33:05;97799.00;;;9.50
20848;BMP180;10584;50.854;12.902;2024-02-21T16:38:28;97795.00;;;9.50
20848;BMP180;10584;50.854;12.902;2024-02-21T16:43:50;97785.00;;;9.40
20848;BMP180;10584;50.854;12.902;2024-02-21T16:49:12;97769.00;;;9.20
20848;BMP180;10584;50.854;12.902;2024-02-21T16:54:34;97757.00;;;9.00
20848;BMP180;10584;50.854;12.902;2024-02-21T16:59:56;97759.00;;;9.00
20848;BMP180;10584;50.854;12.902;2024-02-21T17:05:18;97759.00;;;8.80
20848;BMP180;10584;50.854;12.902;2024-02-21T17:10:42;97770.00;;;8.80
20848;BMP180;10584;50.854;12.902;2024-02-21T17:16:05;97758.00;;;8.60
20848;BMP180;10584;50.854;12.902;2024-02-21T17:21:27;97766.00;;;8.50
20848;BMP180;10584;50.854;12.902;2024-02-21T17:26:52;97754.00;;;8.30
20848;BMP180;10584;50.854;12.902;2024-02-21T17:32:14;97736.00;;;8.10
20848;BMP180;10584;50.854;12.902;2024-02-21T17:37:36;97724.00;;;8.10
20848;BMP180;10584;50.854;12.902;2024-02-21T17:42:59;97712.00;;;7.80
20848;BMP180;10584;50.854;12.902;2024-02-21T17:48:22;97711.00;;;7.60
20848;BMP180;10584;50.854;12.902;2024-02-21T17:53:44;97699.00;;;7.40
20848;BMP180;10584;50.854;12.902;2024-02-21T17:59:08;97693.00;;;7.40
20848;BMP180;10584;50.854;12.902;2024-02-21T18:04:30;97693.00;;;7.50
20848;BMP180;10584;50.854;12.902;2024-02-21T18:09:52;97680.00;;;7.50
20848;BMP180;10584;50.854;12.902;2024-02-21T18:15:15;97674.00;;;7.70
20848;BMP180;10584;50.854;12.902;2024-02-21T18:20:38;97670.00;;;7.80
20848;BMP180;10584;50.854;12.902;2024-02-21T18:26:23;97642.00;;;7.70
20848;BMP180;10584;50.854;12.902;2024-02-21T18:31:45;97635.00;;;7.80
20848;BMP180;10584;50.854;12.902;2024-02-21T18:37:08;97612.00;;;7.80
20848;BMP180;10584;50.854;12.902;2024-02-21T18:42:29;97612.00;;;7.80
20848;BMP180;10584;50.854;12.902;2024-02-21T18:47:52;97598.00;;;7.80
20848;BMP180;10584;50.854;12.902;2024-02-21T18:53:20;97590.00;;;7.90
20848;BMP180;10584;50.854;12.902;2024-02-21T18:58:41;97612.00;;;8.00
20848;BMP180;10584;50.854;12.902;2024-02-21T19:04:03;97599.00;;;8.00
20848;BMP180;10584;50.854;12.902;2024-02-21T19:09:29;97587.00;;;8.10
20848;BMP180;10584;50.854;12.902;2024-02-21T19:14:51;97581.00;;;8.20
20848;BMP180;10584;50.854;12.902;2024-02-21T19:20:14;97573.00;;;8.40
20848;BMP180;10584;50.854;12.902;2024-02-21T19:25:36;97573.00;;;8.50
20848;BMP180;10584;50.854;12.902;2024-02-21T19:31:01;97560.00;;;8.60
20848;BMP180;10584;50.854;12.902;2024-02-21T19:36:24;97560.00;;;8.70
20848;BMP180;10584;50.854;12.902;2024-02-21T19:41:47;97559.00;;;8.80
20848;BMP180;10584;50.854;12.902;2024-02-21T19:47:10;97552.00;;;8.80
20848;BMP180;10584;50.854;12.902;2024-02-21T19:52:34;97537.00;;;8.90
20848;BMP180;10584;50.854;12.902;2024-02-21T19:57:57;97537.00;;;8.90
20848;BMP180;10584;50.854;12.902;2024-02-21T20:03:19;97517.00;;;9.00
20848;BMP180;10584;50.854;12.902;2024-02-21T20:08:40;97501.00;;;9.00
20848;BMP180;10584;50.854;12.902;2024-02-21T20:14:02;97495.00;;;9.10
20848;BMP180;10584;50.854;12.902;2024-02-21T20:19:25;97485.00;;;9.10
20848;BMP180;10584;50.854;12.902;2024-02-21T20:24:47;97471.00;;;9.20
20848;BMP180;10584;50.854;12.902;2024-02-21T20:30:09;97456.00;;;9.20
20848;BMP180;10584;50.854;12.902;2024-02-21T20:35:31;97449.00;;;9.10
20848;BMP180;10584;50.854;12.902;2024-02-21T20:40:54;97444.00;;;9.20
20848;BMP180;10584;50.854;12.902;2024-02-21T20:46:16;97436.00;;;9.10
20848;BMP180;10584;50.854;12.902;2024-02-21T20:51:40;97433.00;;;9.20
20848;BMP180;10584;50.854;12.902;2024-02-21T20:57:03;97426.00;;;9.20
20848;BMP180;10584;50.854;12.902;2024-02-21T21:02:28;97433.00;;;9.30
20848;BMP180;10584;50.854;12.902;2024-02-21T21:07:52;97416.00;;;9.30
20848;BMP180;10584;50.854;12.902;2024-02-21T21:13:13;97414.00;;;9.40
20848;BMP180;10584;50.854;12.902;2024-02-21T21:18:51;97420.00;;;9.40
20848;BMP180;10584;50.854;12.902;2024-02-21T21:24:14;97407.00;;;9.40
20848;BMP180;10584;50.854;12.902;2024-02-21T21:29:35;97418.00;;;9.50
20848;BMP180;10584;50.854;12.902;2024-02-21T21:34:57;97418.00;;;9.50
20848;BMP180;10584;50.854;12.902;2024-02-21T21:40:20;97418.00;;;9.50
20848;BMP180;10584;50.854;12.902;2024-02-21T21:45:42;97414.00;;;9.60
20848;BMP180;10584;50.854;12.902;2024-02-21T21:51:04;97399.00;;;9.60
20848;BMP180;10584;50.854;12.902;2024-02-21T21:56:28;97394.00;;;9.60
20848;BMP180;10584;50.854;12.902;2024-02-21T22:01:50;97396.00;;;9.70
20848;BMP180;10584;50.854;12.902;2024-02-21T22:07:12;97397.00;;;9.80
20848;BMP180;10584;50.854;12.902;2024-02-21T22:12:36;97388.00;;;9.80
20848;BMP180;10584;50.854;12.902;2024-02-21T22:17:58;97373.00;;;9.80
20848;BMP180;10584;50.854;12.902;2024-02-21T22:23:21;97372.00;;;9.90
20848;BMP180;10584;50.854;12.902;2024-02-21T22:28:43;97358.00;;;9.90
20848;BMP180;10584;50.854;12.902;2024-02-21T22:34:05;97362.00;;;9.90
20848;BMP180;10584;50.854;12.902;2024-02-21T22:39:27;97355.00;;;10.00
20848;BMP180;10584;50.854;12.902;2024-02-21T22:44:49;97345.00;;;10.10
20848;BMP180;10584;50.854;12.902;2024-02-21T22:50:11;97337.00;;;10.10
20848;BMP180;10584;50.854;12.902;2024-02-21T22:55:33;97335.00;;;10.10
20848;BMP180;10584;50.854;12.902;2024-02-21T23:00:55;97325.00;;;10.00
20848;BMP180;10584;50.854;12.902;2024-02-21T23:06:17;97306.00;;;10.00
20848;BMP180;10584;50.854;12.902;2024-02-21T23:11:41;97291.00;;;10.00
20848;BMP180;10584;50.854;12.902;2024-02-21T23:17:03;97269.00;;;10.10
20848;BMP180;10584;50.854;12.902;2024-02-21T23:22:25;97255.00;;;10.10
20848;BMP180;10584;50.854;12.902;2024-02-21T23:27:47;97247.00;;;10.20
20848;BMP180;10584;50.854;12.902;2024-02-21T23:33:09;97243.00;;;10.10
20848;BMP180;10584;50.854;12.902;2024-02-21T23:38:32;97224.00;;;10.20
20848;BMP180;10584;50.854;12.902;2024-02-21T23:43:54;97216.00;;;10.20
20848;BMP180;10584;50.854;12.902;2024-02-21T23:49:21;97208.00;;;9.90
20848;BMP180;10584;50.854;12.902;2024-02-21T23:54:45;97193.00;;;10.00
